AirNav   Air Wisconsin pilot careers
 
 1062 users online  

0ID W E Ranch Airport
Thatcher, Idaho, USA


FAA INFORMATION EFFECTIVE 28 MARCH 2019

Location

FAA Identifier: 0ID
Lat/Long: 42-26-53.4705N / 111-46-39.1550W
42-26.891175N / 111-46.652583W
42.4481862 / -111.7775431
(estimated)
Elevation: 5075 ft. / 1547 m (estimated)
From city: 3 miles NW of THATCHER, ID
Time zone: UTC -6 (UTC -7 during Standard Time)
Zip code: 83283

Airport Operations

Airport use: Open to the public
Activation date: 08/2018
Control tower: no
ARTCC: SALT LAKE CITY CENTER
FSS: BOISE FLIGHT SERVICE STATION
Attendance: 
Segmented circle: no

Airport Communications

CTAF: 122.9

Nearby radio navigation aids

VOR radial/distance  VOR name  Freq  Var
MLDr047/33.4MALAD CITY VOR/DME117.4017E

Airport Services

Runway Information

Runway 17/35

Dimensions: 1350 x 48 ft. / 411 x 15 m
Surface: gravel
RUNWAY 17  RUNWAY 35
Latitude: 42-27.001333N42-26.781167N
Longitude: 111-46.674000W111-46.631167W
Elevation: 5075.0 ft.5070.0 ft.
Traffic pattern: rightright

Airport Ownership and Management from official FAA records

Ownership: Privately-owned
Owner: W. E. RANCH, LLC
908 FRANCIS CIR
KAYSVILLE, UT 84037
Phone 801 440 6204
Manager: W. E. RANCH, LLC
908 FRANCIS CIR
KAYSVILLE, UT 84037
Phone 801 440 6204

Airport Operational Statistics

Aircraft based on the field: 1
Single engine airplanes: 1
    

Additional Remarks

OWNER DESIRES ARPT BE CHARTED.

Instrument Procedures

There are no published instrument procedures at 0ID.

Some nearby airports with instrument procedures:

1U7 - Bear Lake County Airport (23 nm SE)
KLGU - Logan-Cache Airport (40 nm S)
KAFO - Afton Municipal Airport (40 nm NE)
KPIH - Pocatello Regional Airport (45 nm NW)
U02 - McCarley Field Airport (52 nm NW)
 
Loc | Ops | Rwys | IFR | FBO | Links
Com | Nav | Svcs | Stats | Notes
Aerial photo
No photo
 
Airport distance calculator
Flying to W E Ranch Airport? Find the distance to fly.

From to 0ID

Sunrise and sunset
Times for 22-Apr-2019
 Local
(UTC-6)
 Zulu
(UTC)
Morning civil twilight06:0612:06
Sunrise06:3612:36
Sunset20:1502:15
Evening civil twilight20:4502:45

Current date and time
Zulu (UTC)  23-Apr-2019 00:09:10
Local (UTC-6)  22-Apr-2019 18:09:10
 
METAR
TAF
KLGU 
40nm S 
221740Z 2218/2318 35006KT P6SM VCSH SCT050 BKN090 FM230200 VRB04KT P6SM SKC
KPIH 
45nm NW 
221720Z 2218/2318 04009KT P6SM BKN050 FM222000 33007KT P6SM SCT050 FM230200 19007KT P6SM FEW040
NOTAMs
Click for the latest NOTAMs
NOTAMs are issued by the DoD/FAA and will open in a separate window not controlled by AirNav.

 

 
 

Would you like to see your business listed on this page?

 If your business provides an interesting product or service to pilots, flight crews, aircraft, or users of the W E Ranch Airport, you should consider listing it here.  To start the listing process, click on the button below
 
Add a business
 

Other Pages about W E Ranch Airport

Update a link
 
Copyright © AirNav, LLC. All rights reserved. Privacy Policy  Contact